createdAt,value
2023-03-06T00:02:17.107Z,1.00
2023-03-06T00:04:43.417Z,1.57
2023-03-06T00:07:09.831Z,1.97
2023-03-06T00:09:36.138Z,1.77
2023-03-06T00:12:02.427Z,1.40
2023-03-06T00:14:28.783Z,2.30
2023-03-06T00:16:55.976Z,2.03
2023-03-06T00:19:23.090Z,2.27
2023-03-06T00:21:49.536Z,4.03
2023-03-06T00:24:15.841Z,1.80
2023-03-06T00:26:42.247Z,1.63
2023-03-06T00:29:08.837Z,2.90
2023-03-06T00:31:35.973Z,5.20
2023-03-06T00:34:03.018Z,2.03
2023-03-06T00:36:29.340Z,5.80
2023-03-06T00:38:55.794Z,7.83
2023-03-06T00:41:22.106Z,5.10
2023-03-06T00:43:48.416Z,1.90
2023-03-06T00:46:14.866Z,2.93
2023-03-06T00:48:41.256Z,3.63
2023-03-06T00:51:07.641Z,3.30
2023-03-06T00:53:33.989Z,1.83
2023-03-06T00:56:00.313Z,0.73
2023-03-06T00:58:26.631Z,1.30
2023-03-06T01:00:53.016Z,1.70
2023-03-06T01:03:19.353Z,0.60
2023-03-06T01:05:45.645Z,0.30
2023-03-06T01:08:11.974Z,2.90
2023-03-06T01:10:39.775Z,0.50
2023-03-06T01:13:06.143Z,1.37
2023-03-06T01:15:32.736Z,1.47
2023-03-06T01:17:59.096Z,2.97
2023-03-06T01:20:25.677Z,2.87
2023-03-06T01:22:52.029Z,0.30
2023-03-06T01:25:18.420Z,1.33
2023-03-06T01:27:44.736Z,1.60
2023-03-06T01:30:11.452Z,2.30
2023-03-06T01:32:37.791Z,1.37
2023-03-06T01:35:04.403Z,1.47
2023-03-06T01:37:30.834Z,0.57
2023-03-06T01:39:57.169Z,1.13
2023-03-06T01:42:23.709Z,5.00
2023-03-06T01:44:57.607Z,2.33
2023-03-06T01:47:23.986Z,1.70
2023-03-06T01:49:50.437Z,2.40
2023-03-06T01:52:18.672Z,0.70
2023-03-06T01:54:46.031Z,1.57
2023-03-06T01:57:32.592Z,2.43
2023-03-06T02:00:04.455Z,0.20
2023-03-06T02:02:30.976Z,1.70
2023-03-06T02:04:57.883Z,2.80
2023-03-06T02:07:24.901Z,0.67
2023-03-06T02:09:51.207Z,1.63
2023-03-06T02:12:19.059Z,0.83
2023-03-06T02:14:46.285Z,1.23
2023-03-06T02:17:13.625Z,2.90
2023-03-06T02:19:58.840Z,1.03
2023-03-06T02:22:29.073Z,0.40
2023-03-06T02:25:01.685Z,2.23
2023-03-06T02:27:28.245Z,2.20
2023-03-06T02:29:54.608Z,2.83
2023-03-06T02:32:21.005Z,1.60
2023-03-06T02:34:47.460Z,0.47
2023-03-06T02:37:13.856Z,3.67
2023-03-06T02:39:41.673Z,2.63
2023-03-06T02:42:08.062Z,0.73
2023-03-06T02:44:34.988Z,2.00
2023-03-06T02:47:02.396Z,2.63
2023-03-06T02:49:28.712Z,1.30
2023-03-06T02:51:55.025Z,0.30
2023-03-06T02:54:21.409Z,0.67
2023-03-06T02:56:47.738Z,2.70
2023-03-06T02:59:14.137Z,2.33
2023-03-06T03:01:40.599Z,0.70
2023-03-06T03:04:06.981Z,0.60
2023-03-06T03:06:33.325Z,1.57
2023-03-06T03:08:59.627Z,1.17
2023-03-06T03:11:26.032Z,0.53
2023-03-06T03:13:52.336Z,1.00
2023-03-06T03:16:18.755Z,2.73
2023-03-06T03:18:47.689Z,3.00
2023-03-06T03:21:14.545Z,0.93
2023-03-06T03:23:41.297Z,1.10
2023-03-06T03:26:12.142Z,2.53
2023-03-06T03:28:38.603Z,2.73
2023-03-06T03:31:06.423Z,1.23
2023-03-06T03:33:33.090Z,4.53
2023-03-06T03:36:00.184Z,2.67
2023-03-06T03:38:26.553Z,3.73
2023-03-06T03:40:53.060Z,4.47
2023-03-06T03:43:19.382Z,4.00
2023-03-06T03:45:45.884Z,0.80
2023-03-06T03:48:12.297Z,0.90
2023-03-06T03:50:38.673Z,2.00
2023-03-06T03:53:05.055Z,2.37
2023-03-06T03:55:31.439Z,1.30
2023-03-06T03:57:57.757Z,3.53
2023-03-06T04:00:24.100Z,3.83
2023-03-06T04:02:50.414Z,1.60
2023-03-06T04:05:16.748Z,2.93
2023-03-06T04:07:43.393Z,2.43
2023-03-06T04:10:10.241Z,3.13
2023-03-06T04:12:36.895Z,3.13
2023-03-06T04:15:04.286Z,2.23
2023-03-06T04:17:33.952Z,2.23
2023-03-06T04:20:00.847Z,2.67
2023-03-06T04:22:27.266Z,4.47
2023-03-06T04:24:53.711Z,1.00
2023-03-06T04:27:20.012Z,1.10
2023-03-06T04:29:46.390Z,3.17
2023-03-06T04:32:12.791Z,3.93
2023-03-06T04:34:39.165Z,3.40
2023-03-06T04:37:05.561Z,1.73
2023-03-06T04:39:31.935Z,1.87
2023-03-06T04:41:58.256Z,3.37
2023-03-06T04:44:24.615Z,1.73
2023-03-06T04:46:51.007Z,1.03
2023-03-06T04:49:17.323Z,4.97
2023-03-06T04:51:43.670Z,2.53
2023-03-06T04:54:09.961Z,1.13
2023-03-06T04:56:36.332Z,0.57
2023-03-06T04:59:04.221Z,5.40
2023-03-06T05:01:30.721Z,4.40
2023-03-06T05:03:57.059Z,3.37
2023-03-06T05:06:23.384Z,2.50
2023-03-06T05:08:49.698Z,0.97
2023-03-06T05:11:16.108Z,1.13
2023-03-06T05:13:42.870Z,1.77
2023-03-06T05:16:09.352Z,1.20
2023-03-06T05:18:36.946Z,1.20
2023-03-06T05:21:03.644Z,4.03
2023-03-06T05:23:31.049Z,5.10
2023-03-06T05:25:57.842Z,1.87
2023-03-06T05:28:24.181Z,1.80
2023-03-06T05:30:50.479Z,5.23
2023-03-06T05:33:16.854Z,1.40
2023-03-06T05:35:47.296Z,4.43
2023-03-06T05:38:14.354Z,3.07
2023-03-06T05:40:41.831Z,3.03
2023-03-06T05:43:08.222Z,4.30
2023-03-06T05:45:35.046Z,4.07
2023-03-06T05:48:01.520Z,2.67
2023-03-06T05:50:27.852Z,1.40
2023-03-06T05:52:54.288Z,1.83
2023-03-06T05:55:21.738Z,3.97
2023-03-06T05:57:48.340Z,2.70
2023-03-06T06:00:14.925Z,3.03
2023-03-06T06:02:43.503Z,0.67
2023-03-06T06:05:12.839Z,1.07
2023-03-06T06:07:39.818Z,3.60
2023-03-06T06:10:06.965Z,2.00
2023-03-06T06:12:33.397Z,5.50
2023-03-06T06:14:59.695Z,2.67
2023-03-06T06:17:26.036Z,0.60
2023-03-06T06:19:52.392Z,2.90
2023-03-06T06:22:18.798Z,0.57
2023-03-06T06:24:45.129Z,0.70
2023-03-06T06:27:11.622Z,3.73
2023-03-06T06:29:38.073Z,4.67
2023-03-06T06:32:04.533Z,0.47
2023-03-06T06:34:31.864Z,2.37
2023-03-06T06:36:58.197Z,0.93
2023-03-06T06:39:24.901Z,1.57
2023-03-06T06:42:09.658Z,4.97
2023-03-06T06:44:39.119Z,4.77
2023-03-06T06:47:23.681Z,1.20
2023-03-06T06:49:54.757Z,1.07
2023-03-06T06:52:21.380Z,2.00
2023-03-06T06:54:48.032Z,0.63
2023-03-06T06:57:14.828Z,1.17
2023-03-06T06:59:41.463Z,2.13
2023-03-06T07:02:07.835Z,4.43
2023-03-06T07:04:34.160Z,1.47
2023-03-06T07:07:01.172Z,2.33
2023-03-06T07:09:27.741Z,2.17
2023-03-06T07:11:54.152Z,1.27
2023-03-06T07:14:20.479Z,3.93
2023-03-06T07:16:46.973Z,5.63
2023-03-06T07:19:13.467Z,4.10
2023-03-06T07:21:39.814Z,1.90
2023-03-06T07:24:06.394Z,2.90
2023-03-06T07:26:34.752Z,3.77
2023-03-06T07:29:01.592Z,1.03
2023-03-06T07:31:28.550Z,3.63
2023-03-06T07:33:55.228Z,3.33
2023-03-06T07:36:22.227Z,4.83
2023-03-06T07:38:48.518Z,3.33
2023-03-06T07:41:16.503Z,1.23
2023-03-06T07:43:44.214Z,4.00
2023-03-06T07:46:11.089Z,2.47
2023-03-06T07:48:37.720Z,2.10
2023-03-06T07:51:05.311Z,2.00
2023-03-06T07:53:32.365Z,6.37
2023-03-06T07:55:58.750Z,3.20
2023-03-06T07:58:25.401Z,2.70
2023-03-06T08:00:51.729Z,1.83
2023-03-06T08:03:18.114Z,5.90
2023-03-06T08:05:44.830Z,6.50
2023-03-06T08:08:11.825Z,1.33
2023-03-06T08:10:38.135Z,0.90
2023-03-06T08:13:04.446Z,1.87
2023-03-06T08:15:30.761Z,5.03
2023-03-06T08:17:57.222Z,3.03
2023-03-06T08:20:23.544Z,1.10
2023-03-06T08:22:49.942Z,3.13
2023-03-06T08:25:16.333Z,7.03
2023-03-06T08:27:43.359Z,3.67
2023-03-06T08:30:09.991Z,1.33
2023-03-06T08:32:36.767Z,3.13
2023-03-06T08:35:04.363Z,2.83
2023-03-06T08:37:30.746Z,3.33
2023-03-06T08:39:57.064Z,1.57
2023-03-06T08:42:23.644Z,1.83
2023-03-06T08:44:50.562Z,5.87
2023-03-06T08:47:16.980Z,2.00
2023-03-06T08:49:43.413Z,1.60
2023-03-06T08:52:09.850Z,1.47
2023-03-06T08:54:36.528Z,1.80
2023-03-06T08:57:03.047Z,1.27
2023-03-06T08:59:29.350Z,3.13
2023-03-06T09:01:55.819Z,1.13
2023-03-06T09:04:22.238Z,4.20
2023-03-06T09:06:48.606Z,1.30
2023-03-06T09:09:14.933Z,1.93
2023-03-06T09:11:41.325Z,0.60
2023-03-06T09:14:07.656Z,2.93
2023-03-06T09:16:34.126Z,1.17
2023-03-06T09:19:00.439Z,2.67
2023-03-06T09:21:28.223Z,3.03
2023-03-06T09:23:54.563Z,1.97
2023-03-06T09:26:20.996Z,6.00
2023-03-06T09:28:47.432Z,2.67
2023-03-06T09:31:15.197Z,3.13
2023-03-06T09:33:41.638Z,0.90
2023-03-06T09:36:08.284Z,3.13
2023-03-06T09:38:34.941Z,3.83
2023-03-06T09:43:35.973Z,2.47
2023-03-06T09:46:21.143Z,2.53
2023-03-06T09:49:10.256Z,2.43
2023-03-06T09:52:00.592Z,2.13
2023-03-06T09:54:34.016Z,0.80
2023-03-06T09:57:00.584Z,1.20
2023-03-06T09:59:27.533Z,4.60
2023-03-06T10:02:20.019Z,2.43
2023-03-06T10:04:50.237Z,3.20
2023-03-06T10:07:23.806Z,4.30
2023-03-06T10:10:06.447Z,1.10
2023-03-06T10:12:36.072Z,1.57
2023-03-06T10:15:11.420Z,2.87
2023-03-06T10:17:41.678Z,5.73
2023-03-06T10:20:24.578Z,2.47
2023-03-06T10:23:11.086Z,2.87
2023-03-06T10:25:43.308Z,10.53
2023-03-06T10:28:15.593Z,4.03
2023-03-06T10:30:44.813Z,2.40
2023-03-06T10:33:29.847Z,4.27
2023-03-06T10:35:56.537Z,1.53
2023-03-06T10:38:22.931Z,3.23
2023-03-06T10:41:00.786Z,3.03
2023-03-06T10:43:28.122Z,3.17
2023-03-06T10:45:54.584Z,1.53
2023-03-06T10:48:25.168Z,2.00
2023-03-06T10:50:52.002Z,1.00
2023-03-06T10:53:22.580Z,5.43
2023-03-06T10:55:58.847Z,1.63
2023-03-06T10:58:32.516Z,4.37
2023-03-06T11:01:02.516Z,3.23
2023-03-06T11:03:28.957Z,1.60
2023-03-06T11:05:57.121Z,7.73
2023-03-06T11:08:23.889Z,3.67
2023-03-06T11:10:57.455Z,7.97
2023-03-06T11:13:24.997Z,5.93
2023-03-06T11:16:14.594Z,6.43
2023-03-06T11:18:42.771Z,6.43
2023-03-06T11:21:24.362Z,8.67
2023-03-06T11:23:51.245Z,5.90
2023-03-06T11:26:17.631Z,7.13
2023-03-06T11:28:47.054Z,6.67
2023-03-06T11:31:13.405Z,3.97
2023-03-06T11:33:48.844Z,6.40
2023-03-06T11:36:16.929Z,6.90
2023-03-06T11:38:49.006Z,8.50
2023-03-06T11:41:23.956Z,8.67
2023-03-06T11:43:50.256Z,7.50
2023-03-06T11:46:46.374Z,5.27
2023-03-06T11:49:32.212Z,7.90
2023-03-06T11:52:03.356Z,8.30
2023-03-06T11:54:29.980Z,5.73
2023-03-06T11:56:58.235Z,9.37
2023-03-06T11:59:24.661Z,6.43
2023-03-06T12:02:05.940Z,6.20
2023-03-06T12:04:38.798Z,8.00
2023-03-06T12:07:23.702Z,11.43
2023-03-06T12:09:53.828Z,8.43
2023-03-06T12:12:25.926Z,6.67
2023-03-06T12:14:52.232Z,9.70
2023-03-06T12:17:22.684Z,7.23
2023-03-06T12:20:10.356Z,7.33
2023-03-06T12:22:58.251Z,6.43
2023-03-06T12:25:41.700Z,6.37
2023-03-06T12:28:07.984Z,5.40
2023-03-06T12:30:40.125Z,5.90
2023-03-06T12:33:17.334Z,11.57
2023-03-06T12:35:57.311Z,8.57
2023-03-06T12:39:02.133Z,9.57
2023-03-06T12:41:33.786Z,6.00
2023-03-06T12:44:26.500Z,8.07
2023-03-06T12:47:03.340Z,7.50
2023-03-06T12:49:33.145Z,8.23
2023-03-06T12:52:00.464Z,12.03
2023-03-06T12:54:31.280Z,7.60
2023-03-06T12:56:59.079Z,6.90
2023-03-06T12:59:37.629Z,10.10
2023-03-06T13:02:04.135Z,8.13
2023-03-06T13:04:49.385Z,8.00
2023-03-06T13:07:18.850Z,9.03
2023-03-06T13:09:45.162Z,8.53
2023-03-06T13:12:14.534Z,7.27
2023-03-06T13:14:48.652Z,6.10
2023-03-06T13:17:38.042Z,6.03
2023-03-06T13:20:13.770Z,7.70
2023-03-06T13:22:40.925Z,6.47
2023-03-06T13:25:16.576Z,7.53
2023-03-06T13:27:46.005Z,7.63
2023-03-06T13:30:27.198Z,6.03
2023-03-06T13:32:54.206Z,6.50
2023-03-06T13:35:29.708Z,5.80
2023-03-06T13:37:56.790Z,9.03
2023-03-06T13:40:30.667Z,9.30
2023-03-06T13:43:23.073Z,6.33
2023-03-06T13:45:49.859Z,6.77
2023-03-06T13:48:45.738Z,7.47
2023-03-06T13:51:22.206Z,7.57
2023-03-06T13:53:56.558Z,6.53
2023-03-06T13:56:29.054Z,6.77
2023-03-06T13:58:58.388Z,9.13
2023-03-06T14:01:43.530Z,6.90
2023-03-06T14:04:28.490Z,8.70
2023-03-06T14:07:01.369Z,11.33
2023-03-06T14:09:36.806Z,11.07
2023-03-06T14:12:13.048Z,9.03
2023-03-06T14:14:43.390Z,7.60
2023-03-06T14:17:28.125Z,9.27
2023-03-06T14:19:57.509Z,10.07
2023-03-06T14:22:24.973Z,6.70
2023-03-06T14:24:52.926Z,7.67
2023-03-06T14:27:19.528Z,7.23
2023-03-06T14:29:48.584Z,7.17
2023-03-06T14:32:17.116Z,7.70
2023-03-06T14:34:45.918Z,7.07
2023-03-06T14:37:22.702Z,7.37
2023-03-06T14:39:49.110Z,4.63
2023-03-06T14:42:26.264Z,7.30
2023-03-06T14:45:02.851Z,5.13
2023-03-06T14:47:30.871Z,8.07
2023-03-06T14:50:15.827Z,5.43
2023-03-06T14:52:42.732Z,3.97
2023-03-06T14:55:10.950Z,5.87
2023-03-06T14:57:38.379Z,4.60
2023-03-06T15:00:06.948Z,6.83
2023-03-06T15:02:33.885Z,4.70
2023-03-06T15:05:05.953Z,7.73
2023-03-06T15:07:33.135Z,4.80
2023-03-06T15:09:59.709Z,4.37
2023-03-06T15:12:33.898Z,5.50
2023-03-06T15:15:03.736Z,6.10
2023-03-06T15:17:30.087Z,4.87
2023-03-06T15:19:57.741Z,6.10
2023-03-06T15:22:26.869Z,4.60
2023-03-06T15:24:53.682Z,4.13
2023-03-06T15:27:26.759Z,4.37
2023-03-06T15:29:53.117Z,4.63
2023-03-06T15:32:25.503Z,4.33
2023-03-06T15:35:10.814Z,3.53
2023-03-06T15:37:37.131Z,5.30
2023-03-06T15:40:06.484Z,5.70
2023-03-06T15:42:34.505Z,4.50
2023-03-06T15:45:05.477Z,4.83
2023-03-06T15:47:31.772Z,6.00
2023-03-06T15:49:58.200Z,6.67
2023-03-06T15:52:24.602Z,9.37
2023-03-06T15:54:50.933Z,10.37
2023-03-06T15:57:29.010Z,7.27
2023-03-06T15:59:56.516Z,9.07
2023-03-06T16:02:24.142Z,9.03
2023-03-06T16:04:50.659Z,10.63
2023-03-06T16:07:17.236Z,9.37
2023-03-06T16:09:43.972Z,12.67
2023-03-06T16:12:17.588Z,7.87
2023-03-06T16:14:44.548Z,10.00
2023-03-06T16:17:11.819Z,14.63
2023-03-06T16:19:38.254Z,11.77
2023-03-06T16:22:04.560Z,8.13
2023-03-06T16:24:31.136Z,12.17
2023-03-06T16:26:58.732Z,14.00
2023-03-06T16:29:26.428Z,13.97
2023-03-06T16:31:53.737Z,8.40
2023-03-06T16:34:20.114Z,13.47
2023-03-06T16:36:47.557Z,14.43
2023-03-06T16:39:18.128Z,14.70
2023-03-06T16:41:45.946Z,11.17
2023-03-06T16:44:12.629Z,12.63
2023-03-06T16:46:40.265Z,9.73
2023-03-06T16:49:06.917Z,12.27
2023-03-06T16:51:33.704Z,13.43
2023-03-06T16:54:00.020Z,14.50
2023-03-06T16:56:26.352Z,13.07
2023-03-06T16:58:52.682Z,12.07
2023-03-06T17:01:19.403Z,13.53
2023-03-06T17:03:45.958Z,11.57
2023-03-06T17:06:16.488Z,16.17
2023-03-06T17:08:43.452Z,15.00
2023-03-06T17:11:10.146Z,14.07
2023-03-06T17:13:36.554Z,12.43
2023-03-06T17:16:03.127Z,14.93
2023-03-06T17:18:30.049Z,14.10
2023-03-06T17:20:56.663Z,16.60
2023-03-06T17:23:29.542Z,14.23
2023-03-06T17:26:15.342Z,13.97
2023-03-06T17:28:42.115Z,16.63
2023-03-06T17:31:19.355Z,17.30
2023-03-06T17:33:45.984Z,18.40
2023-03-06T17:36:14.299Z,16.77
2023-03-06T17:38:41.045Z,14.87
2023-03-06T17:41:09.142Z,19.40
2023-03-06T17:43:36.302Z,19.70
2023-03-06T17:46:03.708Z,16.23
2023-03-06T17:48:30.156Z,18.80
2023-03-06T17:50:57.143Z,16.30
2023-03-06T17:53:23.616Z,17.27
2023-03-06T17:55:50.229Z,20.27
2023-03-06T17:58:16.858Z,18.33
2023-03-06T18:00:43.587Z,21.37
2023-03-06T18:03:09.925Z,16.10
2023-03-06T18:05:36.806Z,17.70
2023-03-06T18:08:03.464Z,20.53
2023-03-06T18:10:29.766Z,18.93
2023-03-06T18:12:56.746Z,19.10
2023-03-06T18:15:23.174Z,19.30
2023-03-06T18:17:49.613Z,17.10
2023-03-06T18:20:16.101Z,21.53
2023-03-06T18:22:42.562Z,18.67
2023-03-06T18:25:09.106Z,16.30
2023-03-06T18:27:35.888Z,19.70
2023-03-06T18:30:02.387Z,18.07
2023-03-06T18:32:28.791Z,16.33
2023-03-06T18:34:55.745Z,19.13
2023-03-06T18:37:22.478Z,20.27
2023-03-06T18:39:48.970Z,16.03
2023-03-06T18:42:15.331Z,17.73
2023-03-06T18:44:41.804Z,16.00
2023-03-06T18:47:08.219Z,20.13
2023-03-06T18:49:34.641Z,20.60
2023-03-06T18:52:01.037Z,19.17
2023-03-06T18:54:29.673Z,19.83
2023-03-06T18:56:56.202Z,21.77
2023-03-06T18:59:22.673Z,22.03
2023-03-06T19:01:49.107Z,21.63
2023-03-06T19:04:15.705Z,18.73
2023-03-06T19:06:42.731Z,19.50
2023-03-06T19:09:10.964Z,20.80
2023-03-06T19:11:37.284Z,17.63
2023-03-06T19:14:03.710Z,20.87
2023-03-06T19:16:31.149Z,20.97
2023-03-06T19:18:58.003Z,21.60
2023-03-06T19:21:25.688Z,18.77
2023-03-06T19:23:52.072Z,14.80
2023-03-06T19:26:18.851Z,27.73
2023-03-06T19:28:52.322Z,17.30
2023-03-06T19:31:20.576Z,18.43
2023-03-06T19:33:47.837Z,23.93
2023-03-06T19:36:15.178Z,18.80
2023-03-06T19:38:41.956Z,19.37
2023-03-06T19:41:13.347Z,22.50
2023-03-06T19:43:40.764Z,19.90
2023-03-06T19:46:10.878Z,18.87
2023-03-06T19:48:37.308Z,20.97
2023-03-06T19:51:04.764Z,20.70
2023-03-06T19:53:31.716Z,22.53
2023-03-06T19:56:08.191Z,21.53
2023-03-06T19:58:35.817Z,21.20
2023-03-06T20:01:06.031Z,16.90
2023-03-06T20:03:32.497Z,16.10
2023-03-06T20:05:59.000Z,16.70
2023-03-06T20:08:25.380Z,15.53
2023-03-06T20:10:51.753Z,18.47
2023-03-06T20:13:18.088Z,20.30
2023-03-06T20:15:44.579Z,22.23
2023-03-06T20:18:11.090Z,18.50
2023-03-06T20:20:39.171Z,17.40
2023-03-06T20:23:06.107Z,21.67
2023-03-06T20:25:34.718Z,12.97
2023-03-06T20:28:01.069Z,14.30
2023-03-06T20:30:36.690Z,12.00
2023-03-06T20:33:04.257Z,10.13
2023-03-06T20:35:30.591Z,10.07
2023-03-06T20:37:59.804Z,8.47
2023-03-06T20:40:26.420Z,10.60
2023-03-06T20:42:52.808Z,7.00
2023-03-06T20:45:19.144Z,7.87
2023-03-06T20:47:47.186Z,7.27
2023-03-06T20:50:14.960Z,8.37
2023-03-06T20:52:41.371Z,9.73
2023-03-06T20:55:07.965Z,3.93
2023-03-06T20:57:34.782Z,4.37
2023-03-06T21:00:01.164Z,3.40
2023-03-06T21:02:27.566Z,7.17
2023-03-06T21:04:53.952Z,9.03
2023-03-06T21:07:20.392Z,8.03
2023-03-06T21:09:47.714Z,5.93
2023-03-06T21:12:16.419Z,7.90
2023-03-06T21:14:42.739Z,2.73
2023-03-06T21:17:09.101Z,2.03
2023-03-06T21:19:36.186Z,3.03
2023-03-06T21:22:02.635Z,5.30
2023-03-06T21:24:28.961Z,8.47
2023-03-06T21:26:55.349Z,3.03
2023-03-06T21:29:21.645Z,3.97
2023-03-06T21:31:48.063Z,3.77
2023-03-06T21:34:14.479Z,5.13
2023-03-06T21:36:40.928Z,5.17
2023-03-06T21:39:07.213Z,3.87
2023-03-06T21:41:34.007Z,2.00
2023-03-06T21:44:01.761Z,2.60
2023-03-06T21:46:29.247Z,3.07
2023-03-06T21:48:55.907Z,1.60
2023-03-06T21:51:23.712Z,4.03
2023-03-06T21:53:50.444Z,0.67
2023-03-06T21:56:18.456Z,9.57
2023-03-06T21:58:45.324Z,5.77
2023-03-06T22:01:13.331Z,5.77
2023-03-06T22:03:40.021Z,3.23
2023-03-06T22:06:07.231Z,2.67
2023-03-06T22:08:33.542Z,3.23
2023-03-06T22:10:59.841Z,5.17
2023-03-06T22:13:26.126Z,4.07
2023-03-06T22:15:52.770Z,3.73
2023-03-06T22:18:20.019Z,5.20
2023-03-06T22:20:46.552Z,4.30
2023-03-06T22:23:12.923Z,4.00
2023-03-06T22:25:39.361Z,4.00
2023-03-06T22:28:05.746Z,4.30
2023-03-06T22:30:32.019Z,5.60
2023-03-06T22:32:58.432Z,7.37
2023-03-06T22:35:24.950Z,5.17
2023-03-06T22:37:51.343Z,4.17
2023-03-06T22:40:17.882Z,3.90
2023-03-06T22:42:44.211Z,5.77
2023-03-06T22:45:10.904Z,7.63
2023-03-06T22:47:37.394Z,3.17
2023-03-06T22:50:04.533Z,6.17
2023-03-06T22:52:30.853Z,6.00
2023-03-06T22:54:57.269Z,18.70
2023-03-06T22:57:23.751Z,6.17
2023-03-06T22:59:50.040Z,5.03
2023-03-06T23:02:16.370Z,3.70
2023-03-06T23:04:42.736Z,5.97
2023-03-06T23:07:09.088Z,11.20
2023-03-06T23:09:35.463Z,10.47
2023-03-06T23:12:01.887Z,9.80
2023-03-06T23:14:28.241Z,7.27
2023-03-06T23:16:54.556Z,13.17
2023-03-06T23:19:20.878Z,6.83
2023-03-06T23:21:47.322Z,8.97
2023-03-06T23:24:13.787Z,12.63
2023-03-06T23:26:40.639Z,9.13
2023-03-06T23:29:07.019Z,6.23
2023-03-06T23:31:33.351Z,5.83
2023-03-06T23:34:00.677Z,6.57
2023-03-06T23:36:27.395Z,8.63
2023-03-06T23:38:53.907Z,10.27
2023-03-06T23:41:20.738Z,8.07
2023-03-06T23:43:47.651Z,8.23
2023-03-06T23:46:14.034Z,9.13
2023-03-06T23:48:41.330Z,11.87
2023-03-06T23:51:08.423Z,6.77
2023-03-06T23:53:34.872Z,9.37
2023-03-06T23:56:01.373Z,7.43
2023-03-06T23:58:27.683Z,9.80
